Time;durP1;ratioP1;P1;durP2;ratioP2;P2;SDS_P1;SDS_P2;PMS_P1;PMS_P2;Temp;Humidity;BMP_temperature;BMP_pressure;BME280_temperature;BME280_humidity;BME280_pressure;Samples;Min_cycle;Max_cycle;Signal;HPM_P1;HPM_P2
2022/09/11 00:01:15;;;;;;;8.55;4.20;;;20.60;99.90;;;;;;5096929;28;20052;-49
2022/09/11 00:04:01;;;;;;;5.53;4.35;;;20.60;99.90;;;;;;5102468;28;20028;-49
2022/09/11 00:06:27;;;;;;;6.47;3.90;;;20.60;99.90;;;;;;5039384;28;20435;-49
2022/09/11 00:08:59;;;;;;;4.78;4.18;;;20.50;99.90;;;;;;5042507;28;20044;-49
2022/09/11 00:11:25;;;;;;;6.32;4.10;;;20.50;99.90;;;;;;5042076;28;20493;-51
2022/09/11 00:13:53;;;;;;;5.15;3.60;;;20.50;99.90;;;;;;5080640;28;20060;-52
2022/09/11 00:16:21;;;;;;;11.80;4.20;;;20.40;99.90;;;;;;5079753;28;20078;-50
2022/09/11 00:18:48;;;;;;;9.02;4.03;;;20.40;99.90;;;;;;5073235;28;20025;-50
2022/09/11 00:21:16;;;;;;;7.03;3.88;;;20.30;99.90;;;;;;5081482;28;20048;-50
2022/09/11 00:23:42;;;;;;;6.82;3.65;;;20.30;99.90;;;;;;5075840;28;20483;-51
2022/09/11 00:26:08;;;;;;;5.82;4.70;;;20.30;99.90;;;;;;5083294;28;20040;-51
2022/09/11 00:28:35;;;;;;;8.07;6.78;;;20.30;99.90;;;;;;5078388;28;20451;-51
2022/09/11 00:31:07;;;;;;;10.98;7.88;;;20.20;99.90;;;;;;5083872;28;20101;-51
2022/09/11 00:33:34;;;;;;;12.55;8.18;;;20.10;99.90;;;;;;5083413;28;20028;-51
2022/09/11 00:36:06;;;;;;;10.75;8.20;;;19.90;99.90;;;;;;5041074;28;20492;-50
2022/09/11 00:38:35;;;;;;;9.25;7.03;;;19.90;99.90;;;;;;5099247;28;20036;-50
2022/09/11 00:41:03;;;;;;;11.52;6.00;;;19.70;99.90;;;;;;5103666;28;20055;-50
2022/09/11 00:43:48;;;;;;;7.22;5.25;;;19.80;99.90;;;;;;5103619;28;20036;-51
2022/09/11 00:46:15;;;;;;;10.07;5.07;;;19.90;99.90;;;;;;5103610;28;20027;-50
2022/09/11 00:48:41;;;;;;;6.38;5.30;;;19.90;99.90;;;;;;5106503;28;20064;-51
2022/09/11 00:51:07;;;;;;;10.20;5.43;;;19.90;99.90;;;;;;5101826;28;20036;-49
2022/09/11 00:53:36;;;;;;;7.00;4.57;;;19.90;99.90;;;;;;5056099;28;20047;-49
2022/09/11 00:56:06;;;;;;;6.80;4.63;;;19.90;99.90;;;;;;5101831;28;20483;-50
2022/09/11 00:58:36;;;;;;;8.15;4.93;;;19.90;99.90;;;;;;5069863;28;20036;-52
2022/09/11 01:01:02;;;;;;;7.38;5.30;;;19.90;99.90;;;;;;5103294;28;20407;-51
2022/09/11 01:03:30;;;;;;;6.15;4.72;;;19.80;99.90;;;;;;5068792;28;20058;-49
2022/09/11 01:05:57;;;;;;;5.93;5.32;;;19.70;99.90;;;;;;5102745;28;20430;-52
2022/09/11 01:08:23;;;;;;;8.73;5.28;;;19.70;99.90;;;;;;5101125;28;20116;-50
2022/09/11 01:11:08;;;;;;;8.63;5.25;;;19.70;99.90;;;;;;5101724;28;20383;-49
2022/09/11 01:13:53;;;;;;;6.88;5.05;;;19.60;99.90;;;;;;5113923;27;20042;-49
2022/09/11 01:16:33;;;;;;;6.70;5.00;;;19.70;99.90;;;;;;5108516;27;20091;-48
2022/09/11 01:19:17;;;;;;;6.82;4.88;;;19.60;99.90;;;;;;5126434;27;20034;-51
2022/09/11 01:22:12;;;;;;;8.75;5.68;;;19.60;99.90;;;;;;5102977;27;20028;-49
2022/09/11 01:24:55;;;;;;;6.40;5.45;;;19.50;99.90;;;;;;5116349;27;20023;-50
2022/09/11 01:27:40;;;;;;;14.60;6.20;;;19.50;99.90;;;;;;5116579;27;20508;-48
2022/09/11 01:30:21;;;;;;;11.93;5.82;;;19.50;99.90;;;;;;5118281;27;20529;-48
2022/09/11 01:32:58;;;;;;;9.27;5.45;;;19.50;99.90;;;;;;5118536;27;20366;-47
2022/09/11 01:35:41;;;;;;;11.00;5.80;;;19.50;99.90;;;;;;5117124;27;20083;-49
2022/09/11 01:38:38;;;;;;;7.10;6.07;;;19.30;99.90;;;;;;5083065;28;20062;-50
2022/09/11 01:41:21;;;;;;;7.63;5.97;;;19.40;99.90;;;;;;5126049;27;20176;-52
2022/09/11 01:44:02;;;;;;;9.10;6.40;;;19.40;99.90;;;;;;5125393;27;20031;-50
2022/09/11 01:46:34;;;;;;;9.57;6.77;;;19.40;99.90;;;;;;5124963;27;20095;-48
2022/09/11 01:49:11;;;;;;;12.63;7.10;;;19.40;99.90;;;;;;5130958;27;20271;-51
2022/09/11 01:51:39;;;;;;;10.75;6.70;;;19.30;99.90;;;;;;5125745;27;20114;-52
2022/09/11 01:54:15;;;;;;;10.32;7.38;;;19.30;99.90;;;;;;5122741;27;20042;-50
2022/09/11 01:56:47;;;;;;;10.75;8.07;;;19.30;99.90;;;;;;5129209;27;20039;-49
2022/09/11 01:59:14;;;;;;;;;;;19.30;99.90;;;;;;5124516;27;20176;-50
2022/09/11 02:01:49;;;;;;;11.60;7.75;;;19.20;99.90;;;;;;5069841;27;20010;-52
2022/09/11 02:04:54;;;;;;;10.60;8.02;;;19.00;99.90;;;;;;5126318;27;20035;-52
2022/09/11 02:07:26;;;;;;;9.68;7.53;;;18.90;99.90;;;;;;5109312;27;20039;-49
2022/09/11 02:10:06;;;;;;;12.50;8.07;;;19.00;99.90;;;;;;5123703;27;20036;-50
2022/09/11 02:12:42;;;;;;;10.10;7.47;;;18.90;99.90;;;;;;5105504;28;20039;-49
2022/09/11 02:15:12;;;;;;;13.13;8.30;;;18.90;99.90;;;;;;5124513;27;20055;-52
2022/09/11 02:17:58;;;;;;;13.85;9.05;;;19.00;99.90;;;;;;5124461;27;20035;-48
2022/09/11 02:20:24;;;;;;;17.45;8.95;;;19.10;99.90;;;;;;5124277;27;20489;-49
2022/09/11 02:22:52;;;;;;;14.27;8.00;;;19.10;99.90;;;;;;5101733;28;20043;-52
2022/09/11 02:25:17;;;;;;;16.52;9.65;;;19.00;99.90;;;;;;5104093;28;20040;-48
2022/09/11 02:27:43;;;;;;;14.00;8.70;;;19.00;99.90;;;;;;5101412;28;20398;-48
2022/09/11 02:30:10;;;;;;;10.60;7.95;;;19.00;99.90;;;;;;5109693;28;20043;-49
2022/09/11 02:32:38;;;;;;;13.23;8.77;;;19.10;99.90;;;;;;5066214;28;20063;-51
2022/09/11 02:35:05;;;;;;;9.32;7.80;;;19.20;99.90;;;;;;5099353;28;20032;-49
2022/09/11 02:37:34;;;;;;;10.65;7.78;;;19.20;99.90;;;;;;5033032;28;20055;-49
2022/09/11 02:41:02;;;;;;;11.90;8.20;;;19.20;99.90;;;;;;5092652;28;20553;-52
2022/09/11 02:43:33;;;;;;;11.10;8.20;;;19.30;99.90;;;;;;5000803;28;20454;-48
2022/09/11 02:46:26;;;;;;;13.70;8.18;;;19.30;99.90;;;;;;5000779;28;20470;-49
2022/09/11 02:49:14;;;;;;;10.50;7.18;;;19.40;99.90;;;;;;4968108;28;20049;-48
2022/09/11 02:51:55;;;;;;;12.35;7.45;;;19.40;99.90;;;;;;5006118;28;20038;-48
2022/09/11 02:54:35;;;;;;;11.50;7.10;;;19.40;99.90;;;;;;5020976;28;20540;-48
2022/09/11 02:57:19;;;;;;;10.13;7.07;;;;;;;;;;5022101;28;20034;-48
2022/09/11 02:59:55;;;;;;;11.93;6.88;;;19.20;99.90;;;;;;5021453;28;20042;-49
2022/09/11 03:02:23;;;;;;;12.85;6.90;;;19.10;99.90;;;;;;5022145;28;20045;-48
2022/09/11 03:04:49;;;;;;;8.43;6.30;;;19.10;99.90;;;;;;5022550;28;20084;-48
2022/09/11 03:07:15;;;;;;;12.48;6.72;;;19.10;99.90;;;;;;5022010;28;20045;-48
2022/09/11 03:09:42;;;;;;;8.43;6.70;;;19.20;99.90;;;;;;5020674;28;20041;-48
2022/09/11 03:12:09;;;;;;;12.13;6.05;;;19.30;99.90;;;;;;5022250;28;20034;-49
2022/09/11 03:14:35;;;;;;;8.48;5.68;;;19.30;99.90;;;;;;5087742;28;20045;-49
2022/09/11 03:17:01;;;;;;;12.30;6.50;;;19.40;99.90;;;;;;5120157;27;20111;-49
2022/09/11 03:19:27;;;;;;;7.43;5.63;;;19.40;99.90;;;;;;5131785;27;20122;-48
2022/09/11 03:21:53;;;;;;;18.25;5.88;;;19.40;99.90;;;;;;5124531;28;20015;-49
2022/09/11 03:24:19;;;;;;;8.68;5.95;;;19.50;99.90;;;;;;5121635;27;20089;-49
2022/09/11 03:26:44;;;;;;;10.70;5.57;;;19.50;99.90;;;;;;5123336;27;20076;-48
2022/09/11 03:29:10;;;;;;;8.10;5.60;;;19.50;99.90;;;;;;5104251;28;20043;-48
2022/09/11 03:31:36;;;;;;;9.90;5.95;;;19.50;99.90;;;;;;5123553;28;20084;-48
2022/09/11 03:34:03;;;;;;;7.07;5.45;;;19.50;99.90;;;;;;5123357;28;20083;-48
2022/09/11 03:36:28;;;;;;;11.70;5.65;;;19.40;99.90;;;;;;5122599;28;20470;-48
2022/09/11 03:38:55;;;;;;;7.90;5.63;;;19.40;99.90;;;;;;5121121;27;20031;-48
2022/09/11 03:41:21;;;;;;;9.85;5.38;;;19.40;99.90;;;;;;5102759;28;20418;-49
2022/09/11 03:43:47;;;;;;;8.23;5.80;;;19.40;99.90;;;;;;5123122;28;20023;-48
2022/09/11 03:46:12;;;;;;;14.32;6.43;;;19.50;99.90;;;;;;5118643;28;20110;-50
2022/09/11 03:48:38;;;;;;;9.88;6.07;;;19.50;99.90;;;;;;5122161;27;20382;-48
2022/09/11 03:51:07;;;;;;;9.05;5.78;;;19.50;99.90;;;;;;5103052;28;20036;-49
2022/09/11 03:53:32;;;;;;;7.78;5.90;;;19.50;99.90;;;;;;5115182;28;20046;-49
2022/09/11 03:55:59;;;;;;;9.18;5.45;;;19.50;99.90;;;;;;5121348;27;20028;-49
2022/09/11 03:58:25;;;;;;;7.90;4.88;;;19.50;99.90;;;;;;5102142;28;20088;-48
2022/09/11 04:00:51;;;;;;;8.20;5.10;;;19.40;99.90;;;;;;5122354;27;20047;-48
2022/09/11 04:03:17;;;;;;;8.65;4.72;;;19.40;99.90;;;;;;5126284;27;20081;-49
2022/09/11 04:05:54;;;;;;;6.88;4.78;;;19.50;99.90;;;;;;5127021;27;20035;-48
2022/09/11 04:08:20;;;;;;;7.25;4.50;;;19.50;99.90;;;;;;5127289;27;20030;-49
2022/09/11 04:10:46;;;;;;;7.85;4.57;;;19.50;99.90;;;;;;5108123;27;20043;-48
2022/09/11 04:13:11;;;;;;;6.32;4.45;;;19.60;99.90;;;;;;5126125;27;20063;-48
2022/09/11 04:15:37;;;;;;;9.10;5.30;;;19.60;99.90;;;;;;5124837;27;20028;-48
2022/09/11 04:18:07;;;;;;;8.35;4.20;;;19.60;99.90;;;;;;5109858;27;20039;-48
2022/09/11 04:20:33;;;;;;;6.47;4.38;;;19.70;99.90;;;;;;5131023;27;20043;-49
2022/09/11 04:22:58;;;;;;;9.00;4.13;;;19.60;99.90;;;;;;5107708;27;20405;-49
2022/09/11 04:25:24;;;;;;;8.80;4.72;;;19.60;99.90;;;;;;5125923;27;20066;-48
2022/09/11 04:27:50;;;;;;;10.20;4.22;;;19.70;99.90;;;;;;5128022;27;20023;-49
2022/09/11 04:30:16;;;;;;;9.93;4.97;;;19.70;99.90;;;;;;5133827;27;20108;-48
2022/09/11 04:32:42;;;;;;;7.65;4.18;;;19.70;99.90;;;;;;5105506;27;20436;-49
2022/09/11 04:35:08;;;;;;;5.90;4.47;;;19.70;99.90;;;;;;5090786;27;20367;-48
2022/09/11 04:37:34;;;;;;;6.30;4.20;;;19.70;99.90;;;;;;5125952;27;20034;-49
2022/09/11 04:40:00;;;;;;;7.63;4.20;;;19.60;99.90;;;;;;5124420;27;20035;-48
2022/09/11 04:42:26;;;;;;;4.20;3.80;;;19.60;99.90;;;;;;5105540;28;20042;-48
2022/09/11 04:44:51;;;;;;;6.97;3.70;;;19.60;99.90;;;;;;5125923;27;20089;-49
2022/09/11 04:47:17;;;;;;;6.07;3.60;;;19.60;99.90;;;;;;5107508;28;20391;-49
2022/09/11 04:49:45;;;;;;;6.35;3.33;;;19.60;99.90;;;;;;5129652;27;20028;-49
2022/09/11 04:52:11;;;;;;;9.63;3.97;;;19.70;99.90;;;;;;5106166;27;20375;-48
2022/09/11 04:54:37;;;;;;;4.78;3.50;;;19.70;99.90;;;;;;5127843;27;20034;-48
2022/09/11 04:57:03;;;;;;;6.13;3.53;;;19.80;99.90;;;;;;5111352;27;20097;-48
2022/09/11 04:59:29;;;;;;;8.77;3.40;;;19.80;99.90;;;;;;5053475;27;20434;-49
2022/09/11 05:01:55;;;;;;;6.35;3.55;;;19.80;99.90;;;;;;5124167;27;20359;-48
2022/09/11 05:04:21;;;;;;;7.13;3.78;;;19.90;99.90;;;;;;5070178;27;20039;-48
2022/09/11 05:06:49;;;;;;;8.43;4.20;;;19.90;99.90;;;;;;5132582;27;20030;-48
2022/09/11 05:09:17;;;;;;;9.35;3.88;;;20.00;99.90;;;;;;5124849;27;20072;-48
2022/09/11 05:11:43;;;;;;;5.05;3.60;;;20.10;99.90;;;;;;5104813;27;20035;-48
2022/09/11 05:14:10;;;;;;;8.07;3.92;;;20.00;99.90;;;;;;5121984;27;20141;-48
2022/09/11 05:16:36;;;;;;;5.18;3.80;;;20.00;99.90;;;;;;5124019;27;20498;-50
2022/09/11 05:19:03;;;;;;;5.43;3.97;;;20.10;99.90;;;;;;5124874;27;20024;-50
2022/09/11 05:21:29;;;;;;;7.93;4.30;;;20.10;99.90;;;;;;5127656;27;20035;-48
2022/09/11 05:23:57;;;;;;;8.35;3.72;;;20.10;99.90;;;;;;5102955;27;20040;-49
2022/09/11 05:26:32;;;;;;;8.30;3.55;;;20.10;99.90;;;;;;5135153;27;20027;-48
2022/09/11 05:29:02;;;;;;;8.25;3.80;;;20.10;99.90;;;;;;5125147;27;20102;-49
2022/09/11 05:31:28;;;;;;;10.85;3.72;;;20.20;99.90;;;;;;5104289;27;20383;-48
2022/09/11 05:33:55;;;;;;;8.88;3.28;;;20.20;99.90;;;;;;5104832;28;20097;-49
2022/09/11 05:36:21;;;;;;;5.13;3.25;;;20.40;99.90;;;;;;5135844;27;20079;-48
2022/09/11 05:38:47;;;;;;;5.75;3.38;;;20.30;99.90;;;;;;5127479;27;20042;-48
2022/09/11 05:41:14;;;;;;;5.30;3.35;;;20.40;99.90;;;;;;5121185;27;20038;-49
2022/09/11 05:43:41;;;;;;;4.70;3.08;;;20.30;99.90;;;;;;5124857;27;20071;-48
2022/09/11 05:46:13;;;;;;;6.18;3.20;;;20.20;99.90;;;;;;5125071;27;20110;-48
2022/09/11 05:48:40;;;;;;;6.32;3.33;;;20.20;99.90;;;;;;5133722;27;20023;-48
2022/09/11 05:51:09;;;;;;;7.32;4.38;;;20.20;99.90;;;;;;5123470;27;20034;-48
2022/09/11 05:53:36;;;;;;;9.95;3.67;;;20.20;99.90;;;;;;5116047;27;20034;-48
2022/09/11 05:56:22;;;;;;;7.80;3.80;;;20.10;99.90;;;;;;5124833;27;20391;-48
2022/09/11 05:58:52;;;;;;;6.50;4.30;;;20.20;99.90;;;;;;5125314;27;20038;-49
2022/09/11 06:14:01;;;;;;;6.75;4.32;;;20.10;99.90;;;;;;5168698;27;20737;-50
2022/09/11 06:16:30;;;;;;;6.53;3.97;;;20.30;99.90;;;;;;5150657;27;20031;-48
2022/09/11 06:18:56;;;;;;;5.68;3.92;;;20.30;99.90;;;;;;5090156;28;20050;-48
2022/09/11 06:21:24;;;;;;;10.07;4.32;;;20.20;99.90;;;;;;5138617;27;20023;-48
2022/09/11 06:23:51;;;;;;;6.07;4.30;;;20.10;99.90;;;;;;5140298;27;20453;-48
2022/09/11 06:26:20;;;;;;;7.65;3.53;;;20.00;99.90;;;;;;5151401;27;20022;-48
2022/09/11 06:28:46;;;;;;;5.88;4.18;;;20.20;99.90;;;;;;5151369;27;20022;-48
2022/09/11 06:31:15;;;;;;;8.05;4.82;;;20.30;99.90;;;;;;5151651;27;20450;-49
2022/09/11 06:33:41;;;;;;;5.03;3.58;;;20.40;99.90;;;;;;5142119;27;20083;-48
2022/09/11 06:36:10;;;;;;;5.63;4.05;;;20.40;99.90;;;;;;5145584;27;20109;-48
2022/09/11 06:38:37;;;;;;;11.82;3.90;;;20.60;99.90;;;;;;5147827;27;20035;-48
2022/09/11 06:41:05;;;;;;;9.60;2.97;;;20.70;99.90;;;;;;5150884;27;20116;-48
2022/09/11 06:43:31;;;;;;;7.20;3.00;;;20.70;99.90;;;;;;5151850;27;20084;-49
2022/09/11 06:46:08;;;;;;;8.50;3.38;;;20.60;99.90;;;;;;5112641;27;20075;-48
2022/09/11 06:48:34;;;;;;;6.25;3.33;;;20.70;99.90;;;;;;5147447;27;20495;-48
2022/09/11 06:51:04;;;;;;;4.53;2.58;;;20.70;99.90;;;;;;5151505;27;20056;-49
2022/09/11 06:53:30;;;;;;;3.72;2.67;;;20.80;99.90;;;;;;5150923;27;20023;-49
2022/09/11 06:56:03;;;;;;;6.57;2.67;;;20.90;99.90;;;;;;5150431;27;20027;-49
2022/09/11 06:58:30;;;;;;;5.82;2.78;;;20.80;99.90;;;;;;5103593;28;20483;-49
2022/09/11 07:01:02;;;;;;;6.28;2.88;;;20.80;99.90;;;;;;5099047;28;20499;-48
2022/09/11 07:03:28;;;;;;;5.13;2.72;;;20.80;99.90;;;;;;5103976;28;20048;-51
2022/09/11 07:05:54;;;;;;;6.85;2.65;;;20.80;99.90;;;;;;5095505;28;20040;-49
2022/09/11 07:08:20;;;;;;;5.03;2.40;;;20.90;99.90;;;;;;5095470;28;20042;-49
2022/09/11 07:10:45;;;;;;;4.05;2.30;;;20.90;99.90;;;;;;5067515;28;20051;-50
2022/09/11 07:13:11;;;;;;;5.65;3.25;;;20.90;99.90;;;;;;5025527;28;20067;-49
2022/09/11 07:15:37;;;;;;;6.45;2.55;;;21.00;99.90;;;;;;5081556;28;20424;-49
2022/09/11 07:18:04;;;;;;;4.75;2.30;;;20.80;99.90;;;;;;5081795;28;20127;-49
2022/09/11 07:20:30;;;;;;;2.78;2.00;;;20.70;99.90;;;;;;5092671;28;20032;-49
2022/09/11 07:22:57;;;;;;;6.18;2.30;;;20.70;99.90;;;;;;5082452;28;20047;-49
2022/09/11 07:25:23;;;;;;;3.85;2.80;;;20.80;99.90;;;;;;5093591;28;20067;-49
2022/09/11 07:27:50;;;;;;;5.28;3.47;;;20.60;99.90;;;;;;5083579;28;20111;-49
2022/09/11 07:30:17;;;;;;;5.78;2.92;;;20.60;99.90;;;;;;5092019;27;20057;-48
2022/09/11 07:32:44;;;;;;;4.93;2.28;;;20.80;99.90;;;;;;5136254;27;20019;-49
2022/09/11 07:35:10;;;;;;;5.30;2.65;;;20.90;99.90;;;;;;5134748;27;20030;-49
2022/09/11 07:37:36;;;;;;;5.20;2.58;;;20.70;99.90;;;;;;5135999;27;20027;-49
2022/09/11 07:40:03;;;;;;;5.57;3.15;;;20.60;99.90;;;;;;5049478;27;20119;-49
2022/09/11 07:42:29;;;;;;;8.73;3.40;;;20.90;99.90;;;;;;5080085;27;20092;-49
2022/09/11 07:44:55;;;;;;;4.60;2.70;;;21.00;99.90;;;;;;5136065;27;20023;-49
2022/09/11 07:47:21;;;;;;;5.35;2.75;;;21.10;99.90;;;;;;5080111;27;20096;-49
2022/09/11 07:49:47;;;;;;;4.95;2.72;;;21.10;99.90;;;;;;5100528;27;20427;-49
2022/09/11 07:52:14;;;;;;;6.68;2.85;;;20.80;99.90;;;;;;5099803;27;20038;-49
2022/09/11 07:54:41;;;;;;;7.10;3.40;;;20.70;99.90;;;;;;5136169;27;20034;-48
2022/09/11 07:57:07;;;;;;;5.00;3.08;;;20.70;99.90;;;;;;5117623;27;20477;-49
2022/09/11 07:59:33;;;;;;;4.93;3.03;;;20.50;99.90;;;;;;5135564;27;20076;-49
2022/09/11 08:01:59;;;;;;;5.18;2.92;;;20.60;99.90;;;;;;5136434;27;20168;-50
2022/09/11 08:04:25;;;;;;;4.35;3.13;;;20.50;99.90;;;;;;5082670;27;20039;-49
2022/09/11 08:06:51;;;;;;;6.38;2.88;;;20.50;99.90;;;;;;5099727;27;20035;-49
2022/09/11 08:09:18;;;;;;;4.57;3.20;;;20.50;99.90;;;;;;5116836;27;20112;-49
2022/09/11 08:11:47;;;;;;;7.88;2.70;;;20.60;99.90;;;;;;5075202;28;20065;-49
2022/09/11 08:14:14;;;;;;;3.45;1.67;;;20.40;99.90;;;;;;5110183;28;20069;-49
2022/09/11 08:16:40;;;;;;;3.42;1.90;;;20.50;99.90;;;;;;5115697;28;20035;-49
2022/09/11 08:19:09;;;;;;;2.95;1.70;;;20.60;99.90;;;;;;5114474;28;20069;-49
2022/09/11 08:21:34;;;;;;;2.45;1.60;;;20.70;99.90;;;;;;5114632;28;20115;-49
2022/09/11 08:24:00;;;;;;;6.05;1.83;;;20.80;99.90;;;;;;5114493;28;20107;-49
2022/09/11 08:26:30;;;;;;;2.20;1.70;;;20.90;99.90;;;;;;5077993;28;20042;-49
2022/09/11 08:28:58;;;;;;;3.25;2.05;;;20.70;99.90;;;;;;5111131;28;20028;-49
2022/09/11 08:31:26;;;;;;;2.63;2.10;;;20.70;99.90;;;;;;5114325;28;20039;-49
2022/09/11 08:33:53;;;;;;;5.47;1.92;;;20.50;99.90;;;;;;5114379;28;20035;-49
2022/09/11 08:36:20;;;;;;;4.68;1.70;;;20.60;99.90;;;;;;5115372;28;20023;-49
2022/09/11 08:38:46;;;;;;;3.17;2.03;;;20.40;99.90;;;;;;5078693;28;20039;-49
2022/09/11 08:41:32;;;;;;;6.13;2.40;;;20.30;99.90;;;;;;5061931;28;20048;-49
2022/09/11 08:44:10;;;;;;;3.30;2.17;;;20.00;99.90;;;;;;5114169;28;20061;-49
2022/09/11 08:46:40;;;;;;;3.30;2.00;;;20.00;99.90;;;;;;5114253;28;20389;-49
2022/09/11 08:49:34;;;;;;;5.20;3.00;;;19.90;99.90;;;;;;5113884;28;20023;-49
2022/09/11 08:52:02;;;;;;;8.90;2.72;;;19.70;99.90;;;;;;5095483;28;20032;-49
2022/09/11 08:54:32;;;;;;;3.53;2.13;;;19.60;99.90;;;;;;5114586;28;20028;-49
2022/09/11 08:57:19;;;;;;;3.63;2.50;;;19.20;99.90;;;;;;5114154;28;20039;-49
2022/09/11 08:59:56;;;;;;;5.00;2.47;;;19.20;99.90;;;;;;5113603;28;20038;-49
2022/09/11 09:02:53;;;;;;;3.63;2.25;;;19.10;99.90;;;;;;5078097;28;20050;-50
2022/09/11 09:05:40;;;;;;;7.30;3.80;;;19.00;99.90;;;;;;5085906;28;20042;-49
2022/09/11 09:08:26;;;;;;;8.90;3.35;;;19.00;99.90;;;;;;5113500;28;20023;-49
2022/09/11 09:11:12;;;;;;;5.00;3.08;;;19.00;99.90;;;;;;5011322;28;20117;-49
2022/09/11 09:14:05;;;;;;;7.15;3.33;;;19.00;99.90;;;;;;5027721;28;20056;-49
2022/09/11 09:16:50;;;;;;;;;;;19.00;99.90;;;;;;5022560;28;20048;-48
2022/09/11 09:19:31;;;;;;;8.93;3.63;;;19.00;99.90;;;;;;5024075;28;19935;-49
2022/09/11 09:22:14;;;;;;;6.53;2.90;;;19.00;99.90;;;;;;4998618;28;20079;-49
2022/09/11 09:25:00;;;;;;;6.40;2.78;;;19.10;99.90;;;;;;5031195;28;20033;-48
2022/09/11 09:27:35;;;;;;;4.53;3.05;;;19.10;99.90;;;;;;5020616;28;20041;-48
2022/09/11 09:30:05;;;;;;;4.55;2.72;;;19.20;99.90;;;;;;5024603;28;20029;-48
2022/09/11 09:32:38;;;;;;;3.88;2.42;;;19.30;99.90;;;;;;5028406;28;20091;-49
2022/09/11 09:35:15;;;;;;;6.05;2.33;;;19.30;99.90;;;;;;5030406;28;20037;-49
2022/09/11 09:37:42;;;;;;;6.07;2.40;;;19.40;99.90;;;;;;5030781;28;20037;-49
2022/09/11 09:40:09;;;;;;;5.85;2.15;;;19.20;99.90;;;;;;5014221;28;20042;-48
2022/09/11 09:42:49;;;;;;;4.03;1.98;;;19.30;99.90;;;;;;5027600;28;20053;-49
2022/09/11 09:45:32;;;;;;;4.72;1.90;;;19.40;99.90;;;;;;5030877;28;20025;-49
2022/09/11 09:47:59;;;;;;;4.00;1.67;;;19.40;99.90;;;;;;5071648;28;20046;-48
2022/09/11 09:50:31;;;;;;;4.90;2.28;;;19.50;99.90;;;;;;5091271;28;20042;-49
2022/09/11 09:53:22;;;;;;;3.13;1.60;;;19.60;99.90;;;;;;5105108;28;20373;-50
2022/09/11 09:55:50;;;;;;;3.42;1.90;;;19.80;99.90;;;;;;5107422;28;20089;-49
2022/09/11 09:58:17;;;;;;;1.83;1.27;;;19.80;99.90;;;;;;5106469;28;20111;-48
2022/09/11 10:00:43;;;;;;;2.42;1.48;;;19.60;99.90;;;;;;5062374;28;20039;-49
2022/09/11 10:03:19;;;;;;;4.43;2.15;;;19.70;99.90;;;;;;5098392;28;20032;-49
2022/09/11 10:05:46;;;;;;;4.95;1.95;;;19.60;99.90;;;;;;5098295;28;20036;-49
2022/09/11 10:08:30;;;;;;;2.63;1.60;;;19.70;99.90;;;;;;5087704;28;20085;-50
2022/09/11 10:11:02;;;;;;;3.38;1.40;;;19.60;99.90;;;;;;5100594;28;20045;-49
2022/09/11 10:13:30;;;;;;;;;;;19.60;99.90;;;;;;5118213;28;20048;-50
2022/09/11 10:16:02;;;;;;;3.50;1.73;;;19.80;99.90;;;;;;5119738;28;19911;-49
2022/09/11 10:18:28;;;;;;;2.63;1.40;;;20.00;99.90;;;;;;5121201;28;20067;-49
2022/09/11 10:21:12;;;;;;;4.03;1.45;;;20.00;99.90;;;;;;5119731;28;20081;-49
2022/09/11 10:24:01;;;;;;;2.95;1.50;;;20.10;99.90;;;;;;5121088;28;20088;-49
2022/09/11 10:26:46;;;;;;;3.30;1.17;;;20.00;99.90;;;;;;5105685;28;20035;-48
2022/09/11 10:29:20;;;;;;;2.22;1.30;;;20.20;99.90;;;;;;5122265;28;20063;-49
2022/09/11 10:31:51;;;;;;;3.83;1.40;;;20.30;99.90;;;;;;5119772;28;20451;-50
2022/09/11 10:34:19;;;;;;;2.17;1.40;;;20.40;99.90;;;;;;5122524;28;20030;-49
2022/09/11 10:37:22;;;;;;;2.53;1.50;;;20.20;99.90;;;;;;5122812;28;20027;-49
2022/09/11 10:39:49;;;;;;;2.95;1.90;;;20.30;99.90;;;;;;5010894;28;20037;-49
2022/09/11 10:42:30;;;;;;;4.53;1.60;;;20.30;99.90;;;;;;5021737;28;20527;-48
2022/09/11 10:45:21;;;;;;;1.70;1.30;;;20.70;99.90;;;;;;5030017;28;20677;-49
2022/09/11 10:47:50;;;;;;;4.35;1.60;;;20.70;99.90;;;;;;5014165;28;20041;-49
2022/09/11 10:50:19;;;;;;;2.55;1.55;;;21.00;99.90;;;;;;5051300;28;20035;-49
2022/09/11 10:53:03;;;;;;;5.65;1.65;;;21.20;99.90;;;;;;5051427;28;20017;-49
2022/09/11 10:55:37;;;;;;;4.00;1.23;;;21.60;99.90;;;;;;5035525;28;20492;-49
2022/09/11 10:58:18;;;;;;;2.47;1.30;;;21.90;99.90;;;;;;5048760;28;20021;-48
2022/09/11 11:00:44;;;;;;;1.50;1.02;;;22.00;99.90;;;;;;5048658;28;20029;-48
2022/09/11 11:03:16;;;;;;;1.42;1.02;;;22.00;99.90;;;;;;5051330;28;20041;-48
2022/09/11 11:05:57;;;;;;;;;;;22.30;99.90;;;;;;5033910;28;20384;-49
2022/09/11 11:08:45;;;;;;;4.88;0.80;;;22.40;99.90;;;;;;5015852;28;20359;-49
2022/09/11 11:11:26;;;;;;;1.40;0.85;;;;;;;;;;5050741;28;20433;-49
2022/09/11 11:13:54;;;;;;;2.08;0.90;;;22.70;99.90;;;;;;5024877;28;20105;-49
2022/09/11 11:17:01;;;;;;;3.92;1.70;;;22.90;99.90;;;;;;5084166;28;20028;-49
2022/09/11 11:19:33;;;;;;;2.67;1.10;;;22.60;99.90;;;;;;5104618;28;20039;-49
2022/09/11 11:22:12;;;;;;;1.08;0.85;;;22.80;99.90;;;;;;5104083;28;20124;-50
2022/09/11 11:24:54;;;;;;;4.18;1.10;;;;;;;;;;5102882;28;20028;-49
2022/09/11 11:27:59;;;;;;;1.48;0.70;;;23.00;99.90;;;;;;5103037;28;20107;-49
2022/09/11 11:30:53;;;;;;;1.25;0.80;;;23.10;99.90;;;;;;5103450;28;20032;-49
2022/09/11 11:33:53;;;;;;;4.07;1.10;;;23.20;99.90;;;;;;5100773;28;20433;-49
2022/09/11 11:36:31;;;;;;;3.20;1.00;;;;;;;;;;5101550;28;20032;-50
2022/09/11 11:39:05;;;;;;;5.47;1.02;;;23.20;99.90;;;;;;5101497;28;20028;-49
2022/09/11 11:41:35;;;;;;;3.33;0.95;;;;;;;;;;5102184;28;20060;-49
2022/09/11 11:44:02;;;;;;;2.30;0.98;;;23.30;99.90;;;;;;5103367;28;20028;-50
2022/09/11 11:46:37;;;;;;;3.20;0.85;;;23.10;99.90;;;;;;5089799;28;20035;-49
2022/09/11 11:49:32;;;;;;;3.03;0.80;;;23.00;99.90;;;;;;5102643;28;20462;-49
2022/09/11 11:52:24;;;;;;;1.33;0.90;;;23.20;99.90;;;;;;5103364;28;20016;-49
2022/09/11 11:55:15;;;;;;;1.40;0.80;;;23.30;99.90;;;;;;5070302;28;20068;-48
2022/09/11 11:58:03;;;;;;;3.28;1.00;;;23.50;99.90;;;;;;5053027;28;20126;-49
2022/09/11 12:00:40;;;;;;;2.30;0.93;;;23.50;99.90;;;;;;5068296;28;20102;-49
2022/09/11 12:03:20;;;;;;;3.70;1.27;;;23.50;99.90;;;;;;5068211;28;20119;-49
2022/09/11 12:05:46;;;;;;;3.03;1.05;;;23.60;99.90;;;;;;5068598;28;20828;-49
2022/09/11 12:08:13;;;;;;;2.03;1.48;;;23.40;99.90;;;;;;5070615;28;20119;-50
2022/09/11 12:10:43;;;;;;;1.40;1.30;;;23.40;99.90;;;;;;5053225;28;20025;-48
2022/09/11 12:13:15;;;;;;;6.18;1.45;;;23.60;99.90;;;;;;5067905;28;20396;-47
2022/09/11 12:15:56;;;;;;;1.25;1.10;;;23.80;99.90;;;;;;5073744;28;20104;-48
2022/09/11 12:18:24;;;;;;;1.50;0.90;;;;;;;;;;5077887;28;20250;-48
2022/09/11 12:20:50;;;;;;;3.53;1.50;;;24.40;99.90;;;;;;5080083;28;20032;-48
2022/09/11 12:23:57;;;;;;;2.08;0.98;;;24.60;99.90;;;;;;5081638;28;20036;-50
2022/09/11 12:26:23;;;;;;;1.60;1.00;;;24.70;99.90;;;;;;5077592;28;20036;-48
2022/09/11 12:29:10;;;;;;;1.42;1.00;;;24.60;99.90;;;;;;5076113;28;20028;-48
2022/09/11 12:31:48;;;;;;;1.80;1.00;;;24.60;99.90;;;;;;5096080;28;20505;-48
2022/09/11 12:34:26;;;;;;;1.48;0.90;;;24.50;99.90;;;;;;5134635;27;20023;-48
2022/09/11 12:37:05;;;;;;;1.10;0.85;;;24.70;99.90;;;;;;5133866;27;20023;-48
2022/09/11 12:39:43;;;;;;;1.50;0.80;;;24.50;99.90;;;;;;5133689;27;20041;-49
2022/09/11 12:42:26;;;;;;;2.50;1.30;;;24.30;99.90;;;;;;5133174;27;20039;-49
2022/09/11 12:44:53;;;;;;;3.55;0.75;;;24.30;99.90;;;;;;5115218;27;20035;-48
2022/09/11 12:47:36;;;;;;;1.67;0.70;;;24.50;99.90;;;;;;5133726;27;20055;-48
2022/09/11 12:50:04;;;;;;;0.82;0.60;;;24.10;99.90;;;;;;5115011;27;20382;-49
2022/09/11 12:52:39;;;;;;;2.53;0.80;;;23.90;99.90;;;;;;5133342;27;20084;-49
2022/09/11 12:55:28;;;;;;;1.90;0.55;;;24.10;99.90;;;;;;5133335;27;20035;-48
2022/09/11 12:57:55;;;;;;;1.42;0.60;;;24.40;99.90;;;;;;5049808;28;20112;-49
2022/09/11 13:00:23;;;;;;;1.48;0.93;;;;;;;;;;5050638;28;20063;-48
2022/09/11 13:02:54;;;;;;;2.72;0.47;;;;;;;;;;5049560;28;20102;-49
2022/09/11 13:05:35;;;;;;;2.25;0.70;;;;;;;;;;5049907;28;20621;-49
2022/09/11 13:08:09;;;;;;;0.95;0.82;;;26.00;99.90;;;;;;5049443;28;20048;-48
2022/09/11 13:10:37;;;;;;;0.95;0.68;;;26.30;99.90;;;;;;5046443;28;20125;-48
2022/09/11 13:13:06;;;;;;;1.83;0.70;;;;;;;;;;5036782;28;20479;-48
2022/09/11 13:15:37;;;;;;;2.63;1.10;;;26.70;99.90;;;;;;5030489;28;20132;-48
2022/09/11 13:18:24;;;;;;;0.95;0.63;;;26.70;99.90;;;;;;4980252;28;20045;-48
2022/09/11 13:20:59;;;;;;;3.90;0.60;;;;;;;;;;4991758;28;20493;-48
2022/09/11 13:23:25;;;;;;;3.17;1.20;;;27.40;99.90;;;;;;5029466;28;20041;-49
2022/09/11 13:25:55;;;;;;;1.00;0.50;;;27.80;99.90;;;;;;5029713;28;20030;-49
2022/09/11 13:28:21;;;;;;;1.15;0.50;;;27.90;99.90;;;;;;5029293;28;20049;-49
2022/09/11 13:31:00;;;;;;;3.80;0.90;;;27.40;99.90;;;;;;5030193;28;20138;-49